DLH220 EDDH-EDDB
Flight info
| Callsign | DLH220 |
|---|---|
| Flight time | N/A |
| Altitude | 23000 |
| Route | RAMAR6G RAMAR Z998 PITEN L619 KETAP |
| Aircraft | A21N/M-SDE2E3FGHIRWXY/LB1 |
Departure
| Time | 2026-04-25 14:20 |
|---|---|
| Airport | Hamburg Helmut Schmidt Airport (EDDH) |
Arrival
| Time | N/A |
|---|---|
| Airport | Berlin Brandenburg Airport (EDDB) |
| Time | Latitude | Longitude | Altitude | Speed | Heading |
|---|---|---|---|---|---|
| 2026-04-25 12:19 | 53.63449 | 10.00303 | 47 ft | 0 kts | 89° |
| 2026-04-25 14:12 | 53.63449 | 10.00281 | 47 ft | 2 kts | 90° |
| 2026-04-25 14:13 | 53.63450 | 10.00253 | 47 ft | 2 kts | 95° |
| 2026-04-25 14:13 | 53.63453 | 10.00227 | 46 ft | 2 kts | 129° |
| 2026-04-25 14:13 | 53.63465 | 10.00216 | 44 ft | 1 kts | 173° |
| 2026-04-25 14:13 | 53.63467 | 10.00215 | 44 ft | 0 kts | 173° |
| 2026-04-25 14:15 | 53.63460 | 10.00217 | 43 ft | 3 kts | 173° |
| 2026-04-25 14:16 | 53.63427 | 10.00222 | 44 ft | 7 kts | 175° |
| 2026-04-25 14:16 | 53.63374 | 10.00229 | 49 ft | 10 kts | 176° |
| 2026-04-25 14:16 | 53.63302 | 10.00236 | 49 ft | 11 kts | 176° |
| 2026-04-25 14:16 | 53.63226 | 10.00245 | 49 ft | 11 kts | 175° |
| 2026-04-25 14:17 | 53.63135 | 10.00256 | 48 ft | 14 kts | 176° |
| 2026-04-25 14:17 | 53.63041 | 10.00236 | 48 ft | 14 kts | 211° |
| 2026-04-25 14:17 | 53.62963 | 10.00146 | 47 ft | 14 kts | 213° |
| 2026-04-25 14:17 | 53.62904 | 10.00084 | 47 ft | 7 kts | 211° |
| 2026-04-25 14:18 | 53.62868 | 10.00034 | 49 ft | 7 kts | 226° |
| 2026-04-25 14:18 | 53.62856 | 9.99996 | 49 ft | 5 kts | 243° |
| 2026-04-25 14:18 | 53.62831 | 9.99910 | 50 ft | 9 kts | 242° |
| 2026-04-25 14:18 | 53.62816 | 9.99815 | 50 ft | 10 kts | 287° |
| 2026-04-25 14:19 | 53.62868 | 9.99746 | 50 ft | 11 kts | 332° |
| 2026-04-25 14:19 | 53.63114 | 9.99518 | 49 ft | 74 kts | 331° |
| 2026-04-25 14:19 | 53.63766 | 9.98952 | 45 ft | 135 kts | 334° |
| 2026-04-25 14:19 | 53.64718 | 9.98157 | 147 ft | 169 kts | 330° |
| 2026-04-25 14:20 | 53.65809 | 9.97295 | 587 ft | 172 kts | 333° |
| 2026-04-25 14:20 | 53.66181 | 9.97014 | 751 ft | 177 kts | 329° |
| 2026-04-25 14:20 | 53.68146 | 9.95369 | 1416 ft | 201 kts | 328° |
| 2026-04-25 14:20 | 53.69415 | 9.94303 | 2013 ft | 205 kts | 328° |
| 2026-04-25 14:21 | 53.70710 | 9.93216 | 2803 ft | 209 kts | 329° |
| 2026-04-25 14:21 | 53.72002 | 9.92132 | 3727 ft | 206 kts | 328° |
| 2026-04-25 14:21 | 53.73291 | 9.91051 | 4511 ft | 207 kts | 328° |
| 2026-04-25 14:21 | 53.74586 | 9.89972 | 4907 ft | 208 kts | 330° |
| 2026-04-25 14:22 | 53.76029 | 9.89551 | 4986 ft | 221 kts | 359° |
| 2026-04-25 14:22 | 53.77500 | 9.90596 | 4991 ft | 243 kts | 30° |
| 2026-04-25 14:22 | 53.78546 | 9.92914 | 4987 ft | 264 kts | 60° |
| 2026-04-25 14:22 | 53.78887 | 9.96040 | 4998 ft | 277 kts | 83° |
| 2026-04-25 14:23 | 53.78864 | 9.99330 | 4992 ft | 282 kts | 87° |
| 2026-04-25 14:23 | 53.78813 | 10.02652 | 4991 ft | 283 kts | 87° |
| 2026-04-25 14:23 | 53.78779 | 10.05968 | 4988 ft | 280 kts | 82° |
| 2026-04-25 14:23 | 53.78982 | 10.09205 | 4985 ft | 276 kts | 75° |
| 2026-04-25 14:24 | 53.79286 | 10.12410 | 4986 ft | 275 kts | 74° |
| 2026-04-25 14:24 | 53.79600 | 10.15602 | 4986 ft | 275 kts | 74° |
| 2026-04-25 14:24 | 53.79916 | 10.18785 | 4984 ft | 274 kts | 74° |
| 2026-04-25 14:24 | 53.80233 | 10.21971 | 4985 ft | 276 kts | 74° |
| 2026-04-25 14:25 | 53.80547 | 10.25133 | 4982 ft | 276 kts | 74° |
| 2026-04-25 14:25 | 53.80864 | 10.28331 | 4997 ft | 276 kts | 74° |
| 2026-04-25 14:25 | 53.81182 | 10.31530 | 4958 ft | 275 kts | 74° |
| 2026-04-25 14:25 | 53.81290 | 10.32611 | 4950 ft | 275 kts | 74° |
| 2026-04-25 14:26 | 53.81814 | 10.37904 | 4951 ft | 275 kts | 74° |
| 2026-04-25 14:26 | 53.82129 | 10.41093 | 4953 ft | 275 kts | 74° |
| 2026-04-25 14:26 | 53.82440 | 10.44286 | 5016 ft | 276 kts | 74° |
| 2026-04-25 14:26 | 53.82753 | 10.47487 | 5025 ft | 276 kts | 74° |
| 2026-04-25 14:27 | 53.83040 | 10.50699 | 5038 ft | 278 kts | 81° |
| 2026-04-25 14:27 | 53.82969 | 10.53308 | 5028 ft | 283 kts | 95° |